Time;durP1;ratioP1;P1;durP2;ratioP2;P2;SDS_P1;SDS_P2;PMS_P1;PMS_P2;Temp;Humidity;BMP_temperature;BMP_pressure;BME280_temperature;BME280_humidity;BME280_pressure;Samples;Min_cycle;Max_cycle;Signal;HPM_P1;HPM_P2
2022/01/26 00:05:44;;;;;;;19.83;8.60;;;;;;;;;;5010119;28;20498;-71
2022/01/26 00:06:19;;;;;;;14.07;7.38;;;;;;;;;;5009512;28;20087;-71
2022/01/26 00:08:45;;;;;;;20.02;8.70;;;;;;;;;;5010530;28;20033;-71
2022/01/26 00:11:10;;;;;;;19.33;8.25;;;;;;;;;;5009934;28;20059;-71
2022/01/26 00:13:35;;;;;;;20.30;9.32;;;;;;;;;;5008532;28;20225;-71
2022/01/26 00:16:03;;;;;;;18.02;8.40;;;;;;;;;;5009600;28;20482;-71
2022/01/26 00:18:32;;;;;;;16.00;7.45;;;;;;;;;;5010097;28;20029;-71
2022/01/26 00:21:06;;;;;;;20.95;9.10;;;;;;;;;;5009909;28;20014;-71
2022/01/26 00:26:31;;;;;;;18.73;7.60;;;;;;;;;;5009582;28;20048;-71
2022/01/26 00:29:13;;;;;;;17.00;7.95;;;;;;;;;;5009539;28;20029;-71
2022/01/26 00:40:04;;;;;;;20.15;8.35;;;;;;;;;;5009883;28;20064;-71
2022/01/26 00:42:35;;;;;;;19.73;8.32;;;;;;;;;;5009750;28;20059;-71
2022/01/26 00:45:01;;;;;;;20.85;8.80;;;;;;;;;;5008074;28;20471;-71
2022/01/26 00:47:26;;;;;;;21.52;8.25;;;;;;;;;;5009778;28;20076;-71
2022/01/26 00:49:57;;;;;;;18.05;8.25;;;;;;;;;;5009834;28;20029;-70
2022/01/26 00:52:30;;;;;;;22.65;8.13;;;;;;;;;;5009232;28;20490;-71
2022/01/26 00:54:55;;;;;;;21.17;8.65;;;;;;;;;;5009671;28;20072;-71
2022/01/26 00:57:21;;;;;;;19.88;8.73;;;;;;;;;;5009206;28;20419;-70
2022/01/26 00:59:47;;;;;;;17.63;7.93;;;;;;;;;;5009862;28;20030;-71
2022/01/26 01:02:12;;;;;;;18.52;8.20;;;;;;;;;;5007403;28;21143;-71
2022/01/26 01:04:37;;;;;;;20.10;8.18;;;;;;;;;;5009665;28;20107;-71
2022/01/26 01:07:05;;;;;;;18.38;7.90;;;;;;;;;;5008905;28;20555;-71
2022/01/26 01:09:33;;;;;;;17.50;8.05;;;;;;;;;;5008832;28;20093;-71
2022/01/26 01:12:01;;;;;;;18.42;7.57;;;;;;;;;;5007540;28;20025;-71
2022/01/26 01:14:26;;;;;;;19.50;8.50;;;;;;;;;;5009631;28;20056;-70
2022/01/26 01:16:56;;;;;;;18.33;8.13;;;;;;;;;;5008747;28;20021;-71
2022/01/26 01:25:25;;;;;;;22.90;8.75;;;;;;;;;;5009063;28;20126;-71
2022/01/26 01:28:09;;;;;;;22.40;8.57;;;;;;;;;;5008315;28;20034;-71
2022/01/26 01:30:39;;;;;;;20.08;8.65;;;;;;;;;;5008648;28;20030;-71
2022/01/26 01:33:07;;;;;;;25.15;8.82;;;;;;;;;;5009496;28;20029;-71
2022/01/26 01:35:36;;;;;;;20.55;9.43;;;;;;;;;;5008540;28;20092;-72
2022/01/26 01:38:09;;;;;;;23.17;9.23;;;;;;;;;;5009279;28;20033;-70
2022/01/26 01:40:40;;;;;;;25.35;9.35;;;;;;;;;;5009408;28;20022;-71
2022/01/26 01:43:07;;;;;;;26.35;9.93;;;;;;;;;;5007578;28;20042;-70
2022/01/26 01:45:44;;;;;;;22.13;8.57;;;;;;;;;;5008969;28;20526;-71
2022/01/26 01:48:13;;;;;;;25.30;8.98;;;;;;;;;;5009270;28;20436;-70
2022/01/26 01:50:41;;;;;;;21.25;9.43;;;;;;;;;;5009248;28;20050;-71
2022/01/26 01:53:08;;;;;;;24.15;10.23;;;;;;;;;;5009091;28;20022;-71
2022/01/26 01:55:33;;;;;;;21.88;9.32;;;;;;;;;;5010527;28;20076;-70
2022/01/26 01:58:00;;;;;;;25.88;10.13;;;;;;;;;;5009204;28;20053;-71
2022/01/26 02:00:26;;;;;;;22.92;9.63;;;;;;;;;;4993018;28;20022;-71
2022/01/26 02:02:52;;;;;;;22.52;9.35;;;;;;;;;;4992677;28;20034;-70
2022/01/26 02:05:19;;;;;;;25.58;10.18;;;;;;;;;;4992683;28;20480;-71
2022/01/26 02:07:44;;;;;;;28.77;10.50;;;;;;;;;;4992216;28;20030;-71
2022/01/26 02:10:10;;;;;;;20.95;8.38;;;;;;;;;;5008727;28;20034;-71
2022/01/26 02:12:39;;;;;;;22.83;9.20;;;;;;;;;;5011797;28;20071;-71
2022/01/26 02:15:12;;;;;;;25.30;10.18;;;;;;;;;;5003507;28;20030;-71
2022/01/26 02:58:10;;;;;;;21.60;8.65;;;;;;;;;;5011273;28;20054;-71
2022/01/26 03:03:24;;;;;;;18.67;7.43;;;;;;;;;;5011086;28;20125;-70
2022/01/26 03:05:55;;;;;;;20.00;8.60;;;;;;;;;;5011360;28;20026;-71
2022/01/26 03:08:31;;;;;;;17.55;7.78;;;;;;;;;;5010584;28;20025;-71
2022/01/26 03:11:01;;;;;;;22.20;8.10;;;;;;;;;;5011842;28;20025;-71
2022/01/26 03:13:30;;;;;;;17.75;7.68;;;;;;;;;;5011192;28;20029;-71
2022/01/26 03:16:02;;;;;;;19.20;8.30;;;;;;;;;;5011173;28;20029;-70
2022/01/26 03:18:51;;;;;;;20.95;8.13;;;;;;;;;;5010822;28;20448;-70
2022/01/26 03:21:21;;;;;;;20.55;7.45;;;;;;;;;;5011327;28;20026;-71
2022/01/26 03:35:00;;;;;;;22.33;8.82;;;;;;;;;;4969286;28;20082;-70
2022/01/26 03:37:33;;;;;;;20.80;9.52;;;;;;;;;;5000924;28;20045;-70
2022/01/26 03:39:58;;;;;;;23.60;10.88;;;;;;;;;;5010567;28;20028;-71
2022/01/26 03:42:24;;;;;;;25.10;8.40;;;;;;;;;;5009935;28;20105;-70
2022/01/26 03:44:49;;;;;;;19.88;8.23;;;;;;;;;;5010520;28;20054;-71
2022/01/26 03:47:15;;;;;;;19.98;8.27;;;;;;;;;;5010155;28;20448;-71
2022/01/26 03:49:41;;;;;;;21.00;8.20;;;;;;;;;;5010426;28;20033;-71
2022/01/26 03:52:07;;;;;;;23.77;8.40;;;;;;;;;;5009447;28;20022;-71
2022/01/26 03:54:33;;;;;;;19.00;8.43;;;;;;;;;;5010446;28;20041;-72
2022/01/26 03:56:58;;;;;;;20.25;8.18;;;;;;;;;;5010464;28;20025;-71
2022/01/26 03:59:24;;;;;;;21.98;8.52;;;;;;;;;;5010029;28;20057;-70
2022/01/26 04:01:49;;;;;;;21.52;8.90;;;;;;;;;;5010073;28;20029;-71
2022/01/26 04:04:14;;;;;;;17.80;7.88;;;;;;;;;;5009149;28;20496;-71
2022/01/26 04:06:40;;;;;;;17.52;8.00;;;;;;;;;;5009593;28;20076;-70
2022/01/26 04:09:08;;;;;;;18.55;7.93;;;;;;;;;;5009790;28;20037;-71
2022/01/26 04:14:01;;;;;;;19.42;8.57;;;;;;;;;;4990147;28;20022;-71
2022/01/26 04:16:26;;;;;;;20.45;9.98;;;;;;;;;;4990440;28;20030;-71
2022/01/26 04:18:54;;;;;;;19.92;9.02;;;;;;;;;;4995224;28;20033;-71
2022/01/26 04:24:00;;;;;;;19.85;8.20;;;;;;;;;;4990114;28;20495;-71
2022/01/26 04:26:32;;;;;;;21.02;8.75;;;;;;;;;;4990485;28;20030;-72
2022/01/26 04:29:03;;;;;;;21.42;9.00;;;;;;;;;;4990208;28;20030;-71
2022/01/26 04:31:28;;;;;;;22.08;9.82;;;;;;;;;;4990588;28;20031;-71
2022/01/26 04:33:54;;;;;;;23.25;8.48;;;;;;;;;;5008585;28;20175;-71
2022/01/26 04:36:30;;;;;;;22.08;8.77;;;;;;;;;;5009752;28;20033;-71
2022/01/26 04:39:02;;;;;;;18.52;7.85;;;;;;;;;;5009446;28;20141;-71
2022/01/26 04:41:39;;;;;;;18.92;8.75;;;;;;;;;;5010599;28;20454;-70
2022/01/26 04:44:16;;;;;;;22.25;7.93;;;;;;;;;;5009668;28;20418;-70
2022/01/26 04:46:41;;;;;;;19.80;9.30;;;;;;;;;;5004078;28;20033;-70
2022/01/26 04:49:06;;;;;;;19.23;8.82;;;;;;;;;;5008859;28;20026;-71
2022/01/26 04:51:32;;;;;;;19.08;7.95;;;;;;;;;;5009137;28;20429;-71
2022/01/26 04:53:57;;;;;;;20.10;8.27;;;;;;;;;;5009353;28;20033;-71
2022/01/26 04:56:23;;;;;;;20.20;8.52;;;;;;;;;;5009508;28;20594;-71
2022/01/26 04:58:48;;;;;;;20.75;8.80;;;;;;;;;;5009072;28;20109;-70
2022/01/26 05:01:13;;;;;;;20.90;8.93;;;;;;;;;;4995952;28;20034;-71
2022/01/26 05:03:40;;;;;;;22.38;9.05;;;;;;;;;;4989292;28;20489;-70
2022/01/26 05:06:05;;;;;;;20.42;8.63;;;;;;;;;;5007437;28;20116;-70
2022/01/26 05:08:31;;;;;;;22.08;9.18;;;;;;;;;;5009388;28;20026;-70
2022/01/26 05:10:56;;;;;;;18.95;8.88;;;;;;;;;;5009488;28;20034;-70
2022/01/26 05:13:22;;;;;;;23.15;9.50;;;;;;;;;;5008992;28;20021;-70
2022/01/26 05:15:47;;;;;;;19.13;9.10;;;;;;;;;;5008652;28;20606;-70
2022/01/26 05:18:14;;;;;;;20.20;9.40;;;;;;;;;;5009024;28;20428;-71
2022/01/26 05:20:39;;;;;;;21.55;10.27;;;;;;;;;;5009950;28;20499;-72
2022/01/26 05:23:05;;;;;;;21.27;10.57;;;;;;;;;;5009353;28;20061;-71
2022/01/26 05:25:30;;;;;;;19.48;9.38;;;;;;;;;;5009473;28;20032;-71
2022/01/26 05:27:55;;;;;;;22.17;11.75;;;;;;;;;;5006309;28;20069;-71
2022/01/26 05:30:21;;;;;;;17.95;10.02;;;;;;;;;;5008567;28;20029;-71
2022/01/26 05:32:46;;;;;;;21.85;9.82;;;;;;;;;;5012924;28;20076;-71
2022/01/26 05:35:11;;;;;;;20.52;9.63;;;;;;;;;;5012412;28;20513;-71
2022/01/26 05:37:37;;;;;;;21.40;9.70;;;;;;;;;;5008541;28;20535;-71
2022/01/26 05:40:04;;;;;;;26.50;13.75;;;;;;;;;;4993091;28;20026;-71
2022/01/26 05:42:30;;;;;;;21.85;11.07;;;;;;;;;;5010925;28;20090;-70
2022/01/26 05:45:01;;;;;;;22.73;10.88;;;;;;;;;;5012369;28;20042;-70
2022/01/26 05:47:27;;;;;;;22.10;10.45;;;;;;;;;;5012909;28;20076;-71
2022/01/26 05:49:53;;;;;;;26.52;12.93;;;;;;;;;;5012246;28;20025;-71
2022/01/26 05:52:18;;;;;;;23.85;10.68;;;;;;;;;;5013128;28;20029;-70
2022/01/26 05:54:43;;;;;;;21.02;10.15;;;;;;;;;;5009657;28;20042;-71
2022/01/26 05:57:08;;;;;;;21.00;10.15;;;;;;;;;;4993273;28;20023;-71
2022/01/26 05:59:34;;;;;;;21.60;10.43;;;;;;;;;;4996750;28;20499;-71
2022/01/26 06:01:59;;;;;;;20.17;10.35;;;;;;;;;;5013216;28;20022;-71
2022/01/26 06:04:25;;;;;;;22.00;11.10;;;;;;;;;;5011998;28;20026;-71
2022/01/26 06:06:50;;;;;;;21.40;10.65;;;;;;;;;;5012338;28;20042;-71
2022/01/26 06:09:16;;;;;;;24.92;11.55;;;;;;;;;;5006283;28;20033;-71
2022/01/26 06:11:41;;;;;;;22.08;10.70;;;;;;;;;;4993024;28;20037;-72
2022/01/26 06:14:06;;;;;;;25.20;10.27;;;;;;;;;;4992553;28;20065;-71
2022/01/26 06:16:31;;;;;;;24.48;11.05;;;;;;;;;;4992615;28;20476;-71
2022/01/26 06:18:57;;;;;;;21.38;10.65;;;;;;;;;;4992411;28;20026;-71
2022/01/26 06:21:22;;;;;;;26.73;12.45;;;;;;;;;;5009034;28;20395;-71
2022/01/26 06:23:47;;;;;;;25.00;12.02;;;;;;;;;;5001844;28;20039;-71
2022/01/26 06:26:13;;;;;;;23.80;11.40;;;;;;;;;;4992227;28;20022;-71
2022/01/26 06:28:38;;;;;;;20.52;9.98;;;;;;;;;;4992628;28;20030;-71
2022/01/26 06:31:09;;;;;;;22.65;11.73;;;;;;;;;;4992686;28;20029;-71
2022/01/26 06:33:35;;;;;;;21.95;10.73;;;;;;;;;;5012415;28;20030;-71
2022/01/26 06:36:03;;;;;;;22.83;11.30;;;;;;;;;;5011351;28;20373;-70
2022/01/26 06:38:28;;;;;;;24.48;11.75;;;;;;;;;;5009662;28;20427;-71
2022/01/26 06:40:55;;;;;;;21.92;11.73;;;;;;;;;;5004972;28;20193;-71
2022/01/26 06:43:23;;;;;;;22.60;11.40;;;;;;;;;;5010120;28;20029;-71
2022/01/26 06:45:53;;;;;;;23.42;10.77;;;;;;;;;;5002907;28;20160;-71
2022/01/26 06:50:57;;;;;;;26.38;11.05;;;;;;;;;;5011492;28;20088;-69
2022/01/26 06:53:22;;;;;;;27.00;11.55;;;;;;;;;;5011571;28;20320;-69
2022/01/26 06:55:48;;;;;;;25.05;11.32;;;;;;;;;;5010266;28;20146;-69
2022/01/26 06:58:13;;;;;;;22.75;10.60;;;;;;;;;;5010941;28;20034;-70
2022/01/26 07:00:39;;;;;;;22.50;11.00;;;;;;;;;;4995166;28;20034;-70
2022/01/26 07:03:04;;;;;;;25.65;11.48;;;;;;;;;;5008764;28;20025;-70
2022/01/26 07:05:30;;;;;;;23.98;12.07;;;;;;;;;;5013855;28;20460;-70
2022/01/26 07:07:55;;;;;;;25.70;11.77;;;;;;;;;;5016788;28;20429;-70
2022/01/26 07:10:21;;;;;;;24.83;12.27;;;;;;;;;;5010254;28;20532;-69
2022/01/26 07:12:46;;;;;;;23.52;10.52;;;;;;;;;;5010718;28;20037;-69
2022/01/26 07:23:05;;;;;;;22.58;10.82;;;;;;;;;;5003603;28;20399;-70
2022/01/26 07:25:31;;;;;;;23.35;10.93;;;;;;;;;;5009498;28;20042;-69
2022/01/26 07:27:57;;;;;;;27.65;11.13;;;;;;;;;;5010741;28;20040;-70
2022/01/26 07:30:23;;;;;;;24.45;11.27;;;;;;;;;;5009878;28;20029;-69
2022/01/26 07:32:48;;;;;;;23.08;11.70;;;;;;;;;;5009805;28;20112;-71
2022/01/26 07:35:14;;;;;;;21.63;10.85;;;;;;;;;;5010138;28;20495;-70
2022/01/26 07:37:39;;;;;;;25.30;11.52;;;;;;;;;;5011658;28;20029;-70
2022/01/26 07:40:09;;;;;;;26.60;10.68;;;;;;;;;;5002860;28;20026;-71
2022/01/26 07:42:35;;;;;;;27.10;11.02;;;;;;;;;;5004765;28;20025;-70
2022/01/26 07:45:07;;;;;;;21.27;11.27;;;;;;;;;;5007795;28;20545;-70
2022/01/26 07:47:33;;;;;;;22.77;10.85;;;;;;;;;;5010050;28;20046;-70
2022/01/26 07:50:00;;;;;;;25.65;11.32;;;;;;;;;;5008321;28;20026;-71
2022/01/26 07:52:29;;;;;;;24.00;10.73;;;;;;;;;;5010173;28;20160;-70
2022/01/26 07:54:54;;;;;;;24.38;11.70;;;;;;;;;;5008235;28;20025;-69
2022/01/26 07:57:20;;;;;;;24.83;10.80;;;;;;;;;;5009812;28;20072;-69
2022/01/26 07:59:46;;;;;;;27.60;11.57;;;;;;;;;;5010261;28;20013;-70
2022/01/26 08:02:11;;;;;;;29.75;12.23;;;;;;;;;;5007809;28;20087;-71
2022/01/26 08:04:37;;;;;;;29.67;14.77;;;;;;;;;;5009410;28;20456;-70
2022/01/26 08:07:02;;;;;;;26.35;13.18;;;;;;;;;;5009265;28;20033;-70
2022/01/26 08:09:28;;;;;;;24.52;11.45;;;;;;;;;;5010458;28;20029;-70
2022/01/26 08:11:53;;;;;;;25.75;11.77;;;;;;;;;;5002704;28;20388;-70
2022/01/26 08:14:19;;;;;;;28.88;11.07;;;;;;;;;;5009331;28;20084;-70
2022/01/26 08:16:44;;;;;;;22.63;10.30;;;;;;;;;;4990598;28;20032;-70
2022/01/26 08:19:12;;;;;;;29.05;11.23;;;;;;;;;;5013703;28;20033;-71
2022/01/26 08:21:38;;;;;;;26.65;11.75;;;;;;;;;;5011056;28;20021;-70
2022/01/26 08:24:12;;;;;;;25.77;11.10;;;;;;;;;;5009642;28;20100;-71
2022/01/26 08:26:41;;;;;;;27.63;12.30;;;;;;;;;;5009410;28;20398;-70
2022/01/26 08:29:16;;;;;;;25.88;11.45;;;;;;;;;;5006473;28;20159;-70
2022/01/26 08:31:43;;;;;;;25.67;10.95;;;;;;;;;;5009757;28;20033;-70
2022/01/26 08:34:08;;;;;;;24.25;10.70;;;;;;;;;;5011592;28;20496;-70
2022/01/26 08:36:33;;;;;;;26.33;11.48;;;;;;;;;;5006429;28;20038;-70
2022/01/26 08:38:59;;;;;;;35.58;15.50;;;;;;;;;;5009722;28;20029;-70
2022/01/26 08:41:24;;;;;;;58.25;24.83;;;;;;;;;;5002994;28;20022;-69
2022/01/26 08:43:50;;;;;;;32.05;14.50;;;;;;;;;;5012146;28;20136;-70
2022/01/26 08:46:18;;;;;;;28.45;12.73;;;;;;;;;;5012151;28;20026;-71
2022/01/26 08:48:43;;;;;;;26.25;12.98;;;;;;;;;;5007828;28;20060;-70
2022/01/26 08:51:08;;;;;;;24.00;12.98;;;;;;;;;;5005853;28;20042;-69
2022/01/26 08:53:34;;;;;;;35.80;16.90;;;;;;;;;;5009059;28;20136;-70
2022/01/26 08:55:59;;;;;;;36.95;15.65;;;;;;;;;;5007836;28;20121;-70
2022/01/26 08:58:24;;;;;;;31.98;13.93;;;;;;;;;;5003052;28;20049;-70
2022/01/26 09:00:50;;;;;;;40.22;22.00;;;;;;;;;;4990116;28;20041;-70
2022/01/26 09:03:15;;;;;;;26.77;13.15;;;;;;;;;;4996521;28;20030;-72
2022/01/26 09:05:41;;;;;;;25.52;11.77;;;;;;;;;;5012213;28;20026;-70
2022/01/26 09:08:06;;;;;;;27.05;11.52;;;;;;;;;;5012620;28;20033;-70
2022/01/26 09:10:33;;;;;;;28.02;12.20;;;;;;;;;;5034983;22;20046;-70
2022/01/26 09:12:59;;;;;;;25.92;12.07;;;;;;;;;;5010953;28;20181;-70
2022/01/26 09:15:28;;;;;;;24.35;11.30;;;;;;;;;;5012870;28;20072;-71
2022/01/26 09:17:59;;;;;;;30.83;13.43;;;;;;;;;;5010903;28;20483;-72
2022/01/26 09:20:25;;;;;;;29.42;12.80;;;;;;;;;;5015041;28;20392;-70
2022/01/26 09:22:50;;;;;;;27.40;12.95;;;;;;;;;;5010471;28;20030;-70
2022/01/26 09:25:16;;;;;;;27.67;12.57;;;;;;;;;;5012871;28;20095;-70
2022/01/26 09:27:41;;;;;;;30.75;13.50;;;;;;;;;;5010214;28;20483;-70
2022/01/26 09:30:08;;;;;;;26.13;11.57;;;;;;;;;;5012705;28;20026;-70
2022/01/26 09:32:33;;;;;;;25.88;10.85;;;;;;;;;;5012053;28;20045;-70
2022/01/26 09:34:58;;;;;;;28.15;12.40;;;;;;;;;;5012704;28;20361;-70
2022/01/26 09:37:23;;;;;;;26.02;11.93;;;;;;;;;;5013655;28;20284;-70
2022/01/26 09:39:49;;;;;;;25.13;11.75;;;;;;;;;;5016814;28;20467;-70
2022/01/26 09:42:16;;;;;;;33.47;13.48;;;;;;;;;;5010787;28;20087;-70
2022/01/26 09:44:42;;;;;;;28.30;12.27;;;;;;;;;;5012593;28;20034;-70
2022/01/26 09:47:09;;;;;;;28.83;12.60;;;;;;;;;;5010850;28;20085;-71
2022/01/26 09:49:35;;;;;;;26.80;12.30;;;;;;;;;;5012825;28;20056;-70
2022/01/26 09:52:07;;;;;;;29.52;12.20;;;;;;;;;;5012131;28;20116;-69
2022/01/26 09:54:33;;;;;;;29.95;12.77;;;;;;;;;;5011272;28;20018;-73
2022/01/26 09:57:03;;;;;;;29.30;13.10;;;;;;;;;;5011074;28;20034;-73
2022/01/26 09:59:30;;;;;;;27.50;12.60;;;;;;;;;;4992635;28;20393;-72
2022/01/26 10:01:56;;;;;;;27.27;12.48;;;;;;;;;;5018329;28;20033;-72
2022/01/26 10:04:35;;;;;;;29.00;12.07;;;;;;;;;;5018803;28;20080;-73
2022/01/26 10:07:03;;;;;;;27.83;11.35;;;;;;;;;;5005500;28;20384;-73
2022/01/26 10:17:38;;;;;;;27.02;11.57;;;;;;;;;;5010977;28;20096;-72
2022/01/26 10:20:09;;;;;;;25.17;11.60;;;;;;;;;;5005779;28;20088;-70
2022/01/26 10:22:35;;;;;;;28.25;11.05;;;;;;;;;;5002055;28;20030;-73
2022/01/26 10:25:13;;;;;;;26.45;10.75;;;;;;;;;;5001844;28;20030;-70
2022/01/26 10:27:49;;;;;;;24.58;11.40;;;;;;;;;;5001967;28;20036;-71
2022/01/26 10:30:17;;;;;;;26.95;12.00;;;;;;;;;;5003105;28;20065;-72
2022/01/26 10:32:45;;;;;;;24.30;10.77;;;;;;;;;;5001690;28;20339;-74
2022/01/26 10:35:13;;;;;;;25.02;10.95;;;;;;;;;;5006144;28;20407;-72
2022/01/26 10:37:48;;;;;;;23.70;11.02;;;;;;;;;;5010427;28;20030;-73
2022/01/26 10:40:19;;;;;;;23.90;10.73;;;;;;;;;;5009266;28;20456;-72
2022/01/26 10:42:56;;;;;;;23.55;10.65;;;;;;;;;;5010304;28;20021;-71
2022/01/26 10:45:47;;;;;;;25.00;10.70;;;;;;;;;;5008202;28;20041;-72
2022/01/26 10:51:09;;;;;;;24.80;10.35;;;;;;;;;;5011249;28;20025;-71
2022/01/26 10:53:38;;;;;;;21.15;10.43;;;;;;;;;;5010227;28;20053;-72
2022/01/26 10:56:05;;;;;;;24.80;10.75;;;;;;;;;;5008067;28;20084;-71
2022/01/26 10:58:30;;;;;;;22.17;10.18;;;;;;;;;;5010695;28;20084;-72
2022/01/26 11:00:57;;;;;;;25.08;10.98;;;;;;;;;;5010804;28;20041;-71
2022/01/26 11:03:23;;;;;;;22.77;11.13;;;;;;;;;;5010987;28;20103;-72
2022/01/26 11:05:48;;;;;;;24.48;10.82;;;;;;;;;;5009664;28;20022;-71
2022/01/26 11:08:16;;;;;;;23.23;11.23;;;;;;;;;;5009057;28;20504;-71
2022/01/26 11:10:45;;;;;;;22.52;11.27;;;;;;;;;;5014677;28;20129;-71
2022/01/26 11:13:10;;;;;;;22.08;11.05;;;;;;;;;;5002305;28;20049;-71
2022/01/26 11:15:36;;;;;;;27.65;12.40;;;;;;;;;;5002253;28;20022;-72
2022/01/26 11:18:10;;;;;;;22.85;10.40;;;;;;;;;;5002729;28;20041;-72
2022/01/26 11:20:51;;;;;;;25.77;12.20;;;;;;;;;;5000179;28;20018;-71
2022/01/26 11:23:32;;;;;;;23.80;11.20;;;;;;;;;;5001234;28;20032;-72
2022/01/26 11:25:57;;;;;;;23.90;10.63;;;;;;;;;;5001190;28;20092;-71
2022/01/26 11:28:26;;;;;;;25.08;10.73;;;;;;;;;;5003265;28;20495;-71
2022/01/26 11:30:55;;;;;;;23.55;10.48;;;;;;;;;;5002060;28;20176;-71
2022/01/26 11:33:24;;;;;;;23.33;11.27;;;;;;;;;;5003678;28;20120;-72
2022/01/26 11:35:57;;;;;;;19.77;9.20;;;;;;;;;;5003456;28;20037;-73
2022/01/26 11:47:21;;;;;;;20.65;9.60;;;;;;;;;;4994900;28;20041;-73
2022/01/26 11:49:49;;;;;;;23.00;10.50;;;;;;;;;;4998350;28;20556;-72
2022/01/26 11:52:24;;;;;;;19.55;9.60;;;;;;;;;;5005867;28;20041;-72
2022/01/26 11:54:53;;;;;;;23.92;10.90;;;;;;;;;;5005502;28;20026;-71
2022/01/26 11:57:21;;;;;;;19.42;10.05;;;;;;;;;;5007985;28;20502;-72
2022/01/26 11:59:59;;;;;;;25.65;11.48;;;;;;;;;;5006179;28;20113;-72
2022/01/26 12:02:34;;;;;;;18.73;8.93;;;;;;;;;;5025534;28;20096;-72
2022/01/26 12:05:05;;;;;;;21.77;11.07;;;;;;;;;;5009912;28;20475;-71
2022/01/26 12:07:30;;;;;;;20.20;10.45;;;;;;;;;;5008729;28;20116;-72
2022/01/26 12:09:56;;;;;;;18.17;8.93;;;;;;;;;;5007967;28;20163;-72
2022/01/26 12:12:23;;;;;;;20.95;10.05;;;;;;;;;;5007692;28;20026;-71
2022/01/26 12:15:01;;;;;;;21.50;10.75;;;;;;;;;;5009092;28;20052;-72
2022/01/26 12:17:32;;;;;;;20.52;9.43;;;;;;;;;;5009053;28;20030;-72
2022/01/26 12:32:01;;;;;;;21.42;10.10;;;;;;;;;;5007697;28;20447;-71
2022/01/26 12:37:15;;;;;;;22.15;10.30;;;;;;;;;;4997034;28;20725;-73
2022/01/26 12:45:05;;;;;;;43.60;18.67;;;;;;;;;;4997224;28;20088;-72
2022/01/26 12:47:31;;;;;;;20.92;10.23;;;;;;;;;;5003241;28;20557;-73
2022/01/26 12:49:58;;;;;;;18.80;10.13;;;;;;;;;;4997775;28;20053;-73
2022/01/26 12:52:24;;;;;;;17.77;9.18;;;;;;;;;;5005705;28;20750;-73
2022/01/26 12:54:49;;;;;;;37.00;17.52;;;;;;;;;;5004246;28;20490;-72
2022/01/26 12:57:15;;;;;;;24.42;10.88;;;;;;;;;;5005949;28;20022;-72
2022/01/26 12:59:41;;;;;;;20.85;10.23;;;;;;;;;;5001773;28;20029;-72
2022/01/26 13:02:06;;;;;;;21.02;11.80;;;;;;;;;;5004697;28;20030;-73
2022/01/26 13:04:32;;;;;;;20.60;9.60;;;;;;;;;;5006516;28;20030;-73
2022/01/26 13:06:57;;;;;;;19.30;9.85;;;;;;;;;;5004752;28;20030;-72
2022/01/26 13:09:26;;;;;;;21.13;11.30;;;;;;;;;;5003377;28;20061;-74
2022/01/26 13:11:54;;;;;;;35.60;19.00;;;;;;;;;;5003449;28;20018;-72
2022/01/26 13:14:28;;;;;;;28.80;14.25;;;;;;;;;;4993335;28;20078;-72
2022/01/26 13:17:17;;;;;;;24.75;12.93;;;;;;;;;;4997489;28;20507;-72
2022/01/26 13:28:33;;;;;;;26.80;13.43;;;;;;;;;;4997689;28;20080;-73
2022/01/26 13:36:39;;;;;;;20.02;9.00;;;;;;;;;;5002996;28;20052;-72
2022/01/26 13:54:55;;;;;;;20.58;10.45;;;;;;;;;;5008169;28;20029;-72
2022/01/26 14:00:08;;;;;;;16.98;8.80;;;;;;;;;;5009113;28;20546;-72
2022/01/26 14:02:35;;;;;;;18.27;8.50;;;;;;;;;;5008248;28;20025;-73
2022/01/26 14:05:01;;;;;;;20.35;9.15;;;;;;;;;;5008692;28;20122;-73
2022/01/26 14:07:26;;;;;;;17.63;8.82;;;;;;;;;;5008109;28;20889;-72
2022/01/26 14:09:51;;;;;;;18.70;9.07;;;;;;;;;;5008215;28;20087;-72
2022/01/26 14:12:21;;;;;;;21.55;12.25;;;;;;;;;;5008707;28;20069;-73
2022/01/26 14:14:52;;;;;;;18.85;10.48;;;;;;;;;;5007758;28;20338;-72
2022/01/26 14:17:27;;;;;;;24.77;14.30;;;;;;;;;;5007938;28;20387;-72
2022/01/26 14:27:52;;;;;;;19.13;8.65;;;;;;;;;;5007772;28;20567;-72
2022/01/26 14:30:46;;;;;;;19.65;9.50;;;;;;;;;;5005946;28;20455;-73
2022/01/26 15:30:14;;;;;;;24.20;9.90;;;;;;;;;;5011034;28;20036;-71
2022/01/26 15:43:49;;;;;;;20.63;9.55;;;;;;;;;;4991026;28;20522;-70
2022/01/26 15:52:20;;;;;;;22.42;10.38;;;;;;;;;;5007092;28;20095;-71
2022/01/26 16:19:43;;;;;;;22.52;10.00;;;;;;;;;;5017021;28;20105;-73
2022/01/26 16:21:45;;;;;;;20.45;9.23;;;;;;;;;;5009593;28;20128;-71
2022/01/26 16:37:47;;;;;;;24.55;9.57;;;;;;;;;;5009696;28;20044;-72
2022/01/26 17:27:48;;;;;;;25.45;10.30;;;;;;;;;;5011739;28;20040;-71
2022/01/26 17:43:15;;;;;;;23.98;10.80;;;;;;;;;;5011469;28;20037;-73
2022/01/26 18:15:08;;;;;;;26.80;10.88;;;;;;;;;;5005067;28;20439;-71
2022/01/26 18:16:22;;;;;;;24.67;10.75;;;;;;;;;;5009894;28;20049;-70
2022/01/26 18:31:45;;;;;;;23.27;10.75;;;;;;;;;;5008978;28;20201;-71
2022/01/26 18:32:43;;;;;;;24.25;11.18;;;;;;;;;;5011630;28;20069;-74
2022/01/26 18:51:39;;;;;;;26.70;12.32;;;;;;;;;;4991889;28;20558;-71
2022/01/26 18:54:06;;;;;;;27.33;13.30;;;;;;;;;;4991039;28;20443;-73
2022/01/26 18:56:32;;;;;;;26.40;12.15;;;;;;;;;;5009330;28;20495;-70
2022/01/26 18:58:57;;;;;;;30.75;14.18;;;;;;;;;;5008877;28;20029;-72
2022/01/26 19:01:22;;;;;;;25.88;11.38;;;;;;;;;;5009719;28;20104;-71
2022/01/26 19:03:48;;;;;;;28.33;13.38;;;;;;;;;;5010219;28;20300;-72
2022/01/26 19:06:13;;;;;;;25.77;10.93;;;;;;;;;;5008919;28;20030;-72
2022/01/26 19:08:40;;;;;;;25.83;11.75;;;;;;;;;;5010011;28;20539;-71
2022/01/26 19:11:10;;;;;;;27.95;11.00;;;;;;;;;;5009719;28;20081;-70
2022/01/26 19:13:36;;;;;;;26.85;11.45;;;;;;;;;;5009361;28;20415;-72
2022/01/26 19:16:08;;;;;;;24.52;10.32;;;;;;;;;;5010381;28;20029;-73
2022/01/26 19:19:01;;;;;;;22.02;10.38;;;;;;;;;;5008520;28;20431;-72
2022/01/26 19:26:36;;;;;;;23.25;9.43;;;;;;;;;;5007258;28;20310;-71
2022/01/26 19:29:25;;;;;;;27.00;12.25;;;;;;;;;;5009248;28;20051;-72
2022/01/26 19:52:55;;;;;;;27.17;11.00;;;;;;;;;;5003044;28;20079;-71
2022/01/26 19:55:22;;;;;;;25.02;11.07;;;;;;;;;;5003841;28;20413;-72
2022/01/26 19:57:48;;;;;;;23.15;10.48;;;;;;;;;;5007961;28;20495;-70
2022/01/26 20:00:14;;;;;;;26.67;10.27;;;;;;;;;;5008308;28;20084;-75
2022/01/26 20:02:39;;;;;;;26.08;11.32;;;;;;;;;;5007700;28;20033;-71
2022/01/26 20:05:05;;;;;;;29.50;11.38;;;;;;;;;;5009041;28;20473;-71
2022/01/26 20:07:32;;;;;;;27.45;11.73;;;;;;;;;;5008692;28;20036;-72
2022/01/26 20:10:03;;;;;;;28.52;11.65;;;;;;;;;;5009691;28;20029;-71
2022/01/26 20:15:00;;;;;;;34.17;12.65;;;;;;;;;;5009257;28;20071;-72
2022/01/26 20:17:27;;;;;;;29.88;12.15;;;;;;;;;;5001494;28;20473;-72
2022/01/26 20:19:53;;;;;;;25.42;10.35;;;;;;;;;;5007761;28;20074;-71
2022/01/26 20:22:18;;;;;;;27.10;10.65;;;;;;;;;;5009116;28;20029;-71
2022/01/26 20:24:44;;;;;;;25.27;10.07;;;;;;;;;;5008166;28;20407;-73
2022/01/26 20:27:10;;;;;;;27.02;11.57;;;;;;;;;;5004674;28;20112;-71
2022/01/26 20:29:41;;;;;;;25.08;11.18;;;;;;;;;;5007301;28;20021;-71
2022/01/26 20:32:07;;;;;;;29.42;12.60;;;;;;;;;;5008066;28;20026;-72
2022/01/26 20:34:33;;;;;;;28.00;11.63;;;;;;;;;;5009156;28;20036;-72
2022/01/26 20:36:58;;;;;;;30.35;11.20;;;;;;;;;;5008163;28;20034;-75
2022/01/26 20:39:24;;;;;;;29.95;10.05;;;;;;;;;;5009415;28;20457;-72
2022/01/26 20:41:49;;;;;;;26.30;11.15;;;;;;;;;;5006672;28;20467;-71
2022/01/26 20:44:18;;;;;;;26.42;10.82;;;;;;;;;;5007657;28;20026;-72
2022/01/26 20:46:43;;;;;;;29.10;11.27;;;;;;;;;;5005862;28;20017;-71
2022/01/26 20:49:09;;;;;;;29.40;11.35;;;;;;;;;;5000949;28;20040;-72
2022/01/26 20:51:34;;;;;;;26.67;11.85;;;;;;;;;;5008438;28;20061;-71
2022/01/26 20:53:59;;;;;;;32.67;13.18;;;;;;;;;;5008165;28;20037;-72
2022/01/26 20:56:25;;;;;;;33.47;13.07;;;;;;;;;;5007324;28;20446;-72
2022/01/26 20:58:51;;;;;;;28.85;12.52;;;;;;;;;;5005466;28;20100;-71
2022/01/26 21:01:16;;;;;;;33.15;12.43;;;;;;;;;;4999662;28;20026;-71
2022/01/26 21:03:42;;;;;;;26.05;11.05;;;;;;;;;;5000818;28;20498;-72
2022/01/26 21:06:08;;;;;;;30.15;13.38;;;;;;;;;;5002874;28;20021;-71
2022/01/26 21:08:34;;;;;;;28.50;12.20;;;;;;;;;;5002056;28;20368;-71
2022/01/26 21:10:59;;;;;;;26.15;11.13;;;;;;;;;;5009185;28;20088;-72
2022/01/26 21:13:25;;;;;;;28.10;11.82;;;;;;;;;;5000351;28;20045;-73
2022/01/26 21:15:50;;;;;;;28.15;12.05;;;;;;;;;;4999807;28;20022;-74
2022/01/26 21:18:17;;;;;;;31.63;12.38;;;;;;;;;;5001408;28;20480;-73
2022/01/26 21:20:43;;;;;;;32.35;13.63;;;;;;;;;;5007538;28;20034;-72
2022/01/26 21:23:09;;;;;;;26.85;12.25;;;;;;;;;;5006091;28;20502;-72
2022/01/26 21:25:34;;;;;;;33.15;12.65;;;;;;;;;;5006352;28;20029;-73
2022/01/26 21:28:01;;;;;;;32.00;12.98;;;;;;;;;;5005399;28;20037;-72
2022/01/26 21:30:28;;;;;;;25.17;11.27;;;;;;;;;;5004920;28;20030;-72
2022/01/26 21:32:53;;;;;;;30.55;13.02;;;;;;;;;;5007588;28;20022;-72